Terminal Aerodrome Forecast
Issued by NWS Duluth, MN

Home | Current Version | Previous Version | Text Only | Print | Product List | Glossary On
Versions: 1 2 3 4 5 6 7 8 9 10 11 12 13 14 15 16 17 18 19 20 21 22 23
000
FTUS43 KDLH 191100
TAFINL
TAF
KINL 191140Z 1912/2012 27005KT 6SM -SN BR SCT029 OVC050
      TEMPO 1912/1913 3SM -SN OVC020
     FM191300 30010KT 5SM -SN BKN027 OVC035
     FM191500 30016G23KT P6SM -SN SCT035 OVC070 PROB30 1921/2001 4SM
      -SN OVC035
     FM200400 30010KT P6SM BKN035=

USA.gov is the U.S. government's official web portal to all federal, state and local government web resources and services.